Time;durP1;ratioP1;P1;durP2;ratioP2;P2;SDS_P1;SDS_P2;PMS_P1;PMS_P2;Temp;Humidity;BMP_temperature;BMP_pressure;BME280_temperature;BME280_humidity;BME280_pressure;Samples;Min_cycle;Max_cycle;Signal;HPM_P1;HPM_P2
2022/04/20 00:00:01;;;;;;;;;;;;;;;;;;5054822;28;28426;-81
2022/04/20 00:02:26;;;;;;;;;;;;;;;;;;5054528;28;28446;-81
2022/04/20 00:04:53;;;;;;;;;;;;;;;;;;5054552;28;29503;-82
2022/04/20 00:07:18;;;;;;;;;;;;;;;;;;5054309;28;28486;-81
2022/04/20 00:09:43;;;;;;;;;;;;;;;;;;5054591;28;28373;-81
2022/04/20 00:12:09;;;;;;;;;;;;;;;;;;5054601;28;28306;-81
2022/04/20 00:14:34;;;;;;;;;;;;;;;;;;5052943;28;28875;-81
2022/04/20 00:16:59;;;;;;;;;;;;;;;;;;5056154;28;28383;-81
2022/04/20 00:19:24;;;;;;;;;;;;;;;;;;5056557;28;27804;-82
2022/04/20 00:21:49;;;;;;;;;;;;;;;;;;5056385;28;28388;-81
2022/04/20 00:24:14;;;;;;;;;;;;;;;;;;5057662;28;29400;-81
2022/04/20 00:26:39;;;;;;;;;;;;;;;;;;5057487;28;28407;-81
2022/04/20 00:29:04;;;;;;;;;;;;;;;;;;5057896;28;28411;-81
2022/04/20 00:31:30;;;;;;;;;;;;;;;;;;5057676;28;28504;-81
2022/04/20 00:33:55;;;;;;;;;;;;;;;;;;5057585;28;28383;-81
2022/04/20 00:36:20;;;;;;;;;;;;;;;;;;5057394;28;28344;-82
2022/04/20 00:38:45;;;;;;;;;;;;;;;;;;5057543;28;28395;-82
2022/04/20 00:41:10;;;;;;;;;;;;;;;;;;5057544;28;28347;-82
2022/04/20 00:43:35;;;;;;;;;;;;;;;;;;5057238;28;28386;-81
2022/04/20 00:46:00;;;;;;;;;;;;;;;;;;5057393;28;28439;-81
2022/04/20 00:48:25;;;;;;;;;;;;;;;;;;5057538;28;28366;-81
2022/04/20 00:50:50;;;;;;;;;;;;;;;;;;5057533;28;28535;-81
2022/04/20 00:53:16;;;;;;;;;;;;;;;;;;5057111;28;28404;-81
2022/04/20 00:55:41;;;;;;;;;;;;;;;;;;5057355;28;28337;-81
2022/04/20 00:58:06;;;;;;;;;;;;;;;;;;5057338;28;28256;-81
2022/04/20 01:00:31;;;;;;;;;;;;;;;;;;5057301;28;28479;-81
2022/04/20 01:02:56;;;;;;;;;;;;;;;;;;5056973;28;28551;-81
2022/04/20 01:05:21;;;;;;;;;;;;;;;;;;5057182;28;28462;-81
2022/04/20 01:07:46;;;;;;;;;;;;;;;;;;5057147;28;28404;-81
2022/04/20 01:10:11;;;;;;;;;;;;;;;;;;5057136;28;28290;-81
2022/04/20 01:12:36;;;;;;;;;;;;;;;;;;5056590;28;28320;-81
2022/04/20 01:15:02;;;;;;;;;;;;;;;;;;5056809;28;28239;-81
2022/04/20 01:17:27;;;;;;;;;;;;;;;;;;5057113;28;28273;-81
2022/04/20 01:19:52;;;;;;;;;;;;;;;;;;5057179;28;28259;-81
2022/04/20 01:22:17;;;;;;;;;;;;;;;;;;5056836;28;29413;-81
2022/04/20 01:24:42;;;;;;;;;;;;;;;;;;5056558;28;28316;-81
2022/04/20 01:27:08;;;;;;;;;;;;;;;;;;5055991;28;28501;-81
2022/04/20 01:29:33;;;;;;;;;;;;;;;;;;5056821;28;28388;-81
2022/04/20 01:31:58;;;;;;;;;;;;;;;;;;5056746;28;28641;-82
2022/04/20 01:34:23;;;;;;;;;;;;;;;;;;5055277;28;28586;-83
2022/04/20 01:36:48;;;;;;;;;;;;;;;;;;5056582;28;28442;-81
2022/04/20 01:39:13;;;;;;;;;;;;;;;;;;5056589;28;27737;-81
2022/04/20 01:41:39;;;;;;;;;;;;;;;;;;5056258;28;28544;-81
2022/04/20 01:44:04;;;;;;;;;;;;;;;;;;5056507;28;28308;-81
2022/04/20 01:46:29;;;;;;;;;;;;;;;;;;5056517;28;28421;-81
2022/04/20 01:48:54;;;;;;;;;;;;;;;;;;5056472;28;28547;-81
2022/04/20 01:54:03;;;;;;;;;;;;;;;;;;5056142;28;28322;-81
2022/04/20 01:56:28;;;;;;;;;;;;;;;;;;5055052;28;28335;-82
2022/04/20 01:58:53;;;;;;;;;;;;;;;;;;5054922;28;28061;-81
2022/04/20 02:04:01;;;;;;;;;;;;;;;;;;5055925;28;28446;-81
2022/04/20 02:06:27;;;;;;;;;;;;;;;;;;5056058;28;28380;-81
2022/04/20 02:08:52;;;;;;;;;;;;;;;;;;5056390;28;28461;-81
2022/04/20 02:11:17;;;;;;;;;;;;;;;;;;5056055;28;28307;-81
2022/04/20 02:13:42;;;;;;;;;;;;;;;;;;5055975;28;28323;-81
2022/04/20 02:16:08;;;;;;;;;;;;;;;;;;5055995;28;28364;-81
2022/04/20 02:18:33;;;;;;;;;;;;;;;;;;5056019;28;28337;-82
2022/04/20 02:20:58;;;;;;;;;;;;;;;;;;5055972;28;28262;-82
2022/04/20 02:23:23;;;;;;;;;;;;;;;;;;5055825;28;28285;-81
2022/04/20 02:25:48;;;;;;;;;;;;;;;;;;5055924;28;28374;-82
2022/04/20 02:28:13;;;;;;;;;;;;;;;;;;5055678;28;28359;-82
2022/04/20 02:30:38;;;;;;;;;;;;;;;;;;5055676;28;28510;-82
2022/04/20 02:33:03;;;;;;;;;;;;;;;;;;5055845;28;28375;-82
2022/04/20 02:35:28;;;;;;;;;;;;;;;;;;5055848;28;28401;-81
2022/04/20 02:37:54;;;;;;;;;;;;;;;;;;5055794;28;28470;-81
2022/04/20 02:40:19;;;;;;;;;;;;;;;;;;5054699;28;29659;-81
2022/04/20 02:42:45;;;;;;;;;;;;;;;;;;5055221;28;27815;-81
2022/04/20 02:45:10;;;;;;;;;;;;;;;;;;5055403;28;28324;-81
2022/04/20 02:47:35;;;;;;;;;;;;;;;;;;5055441;28;28451;-81
2022/04/20 02:50:00;;;;;;;;;;;;;;;;;;5055674;28;28510;-81
2022/04/20 02:52:25;;;;;;;;;;;;;;;;;;5055518;28;28496;-81
2022/04/20 02:54:50;;;;;;;;;;;;;;;;;;5055536;28;28280;-81
2022/04/20 02:57:15;;;;;;;;;;;;;;;;;;5055289;28;28446;-81
2022/04/20 02:59:41;;;;;;;;;;;;;;;;;;5055315;28;28296;-81
2022/04/20 03:02:06;;;;;;;;;;;;;;;;;;5055415;28;28336;-81
2022/04/20 03:04:32;;;;;;;;;;;;;;;;;;5058021;28;28544;-81
2022/04/20 03:06:57;;;;;;;;;;;;;;;;;;5057641;28;28348;-81
2022/04/20 03:09:23;;;;;;;;;;;;;;;;;;5055361;28;28651;-81
2022/04/20 03:11:48;;;;;;;;;;;;;;;;;;5055136;28;28356;-81
2022/04/20 03:14:13;;;;;;;;;;;;;;;;;;5054923;28;28581;-81
2022/04/20 03:16:38;;;;;;;;;;;;;;;;;;5055264;28;28371;-81
2022/04/20 03:19:03;;;;;;;;;;;;;;;;;;5055024;28;28414;-81
2022/04/20 03:21:28;;;;;;;;;;;;;;;;;;5054968;28;28414;-81
2022/04/20 03:23:54;;;;;;;;;;;;;;;;;;5054883;28;28371;-81
2022/04/20 03:26:19;;;;;;;;;;;;;;;;;;5055017;28;28483;-81
2022/04/20 03:28:44;;;;;;;;;;;;;;;;;;5054807;28;28521;-81
2022/04/20 03:31:09;;;;;;;;;;;;;;;;;;5054913;28;28398;-81
2022/04/20 03:33:34;;;;;;;;;;;;;;;;;;5054904;28;28536;-81
2022/04/20 03:35:59;;;;;;;;;;;;;;;;;;5054927;28;28357;-81
2022/04/20 03:38:24;;;;;;;;;;;;;;;;;;5053483;28;28755;-81
2022/04/20 03:40:49;;;;;;;;;;;;;;;;;;5054794;28;27931;-81
2022/04/20 03:43:14;;;;;;;;;;;;;;;;;;5053304;28;28406;-81
2022/04/20 03:45:39;;;;;;;;;;;;;;;;;;5054739;28;28391;-81
2022/04/20 03:48:05;;;;;;;;;;;;;;;;;;5054751;28;29754;-81
2022/04/20 03:50:30;;;;;;;;;;;;;;;;;;5055848;28;28444;-81
2022/04/20 03:52:55;;;;;;;;;;;;;;;;;;5058314;28;28341;-81
2022/04/20 03:55:20;;;;;;;;;;;;;;;;;;5058327;28;28624;-81
2022/04/20 03:57:45;;;;;;;;;;;;;;;;;;5057817;28;28333;-81
2022/04/20 04:00:10;;;;;;;;;;;;;;;;;;5058121;28;28412;-81
2022/04/20 04:02:35;;;;;;;;;;;;;;;;;;5057769;28;28273;-81
2022/04/20 04:05:00;;;;;;;;;;;;;;;;;;5058116;28;28430;-81
2022/04/20 04:07:26;;;;;;;;;;;;;;;;;;5058067;28;28524;-81
2022/04/20 04:09:51;;;;;;;;;;;;;;;;;;5057943;28;28378;-81
2022/04/20 04:12:16;;;;;;;;;;;;;;;;;;5067804;28;28262;-81
2022/04/20 04:14:41;;;;;;;;;;;;;;;;;;5068761;28;28259;-81
2022/04/20 04:17:06;;;;;;;;;;;;;;;;;;5057730;28;28240;-81
2022/04/20 04:19:32;;;;;;;;;;;;;;;;;;5057935;28;28547;-81
2022/04/20 04:21:57;;;;;;;;;;;;;;;;;;5057831;28;28249;-81
2022/04/20 04:24:35;;;;;;;;;;;;;;;;;;5057944;28;28435;-81
2022/04/20 04:27:00;;;;;;;;;;;;;;;;;;5056254;28;31188;-81
2022/04/20 04:29:25;;;;;;;;;;;;;;;;;;5057331;28;28283;-81
2022/04/20 04:31:50;;;;;;;;;;;;;;;;;;5057776;28;28322;-81
2022/04/20 04:34:15;;;;;;;;;;;;;;;;;;5057820;28;28501;-81
2022/04/20 04:36:40;;;;;;;;;;;;;;;;;;5057315;28;28249;-81
2022/04/20 04:39:05;;;;;;;;;;;;;;;;;;5057599;28;28245;-81
2022/04/20 04:41:30;;;;;;;;;;;;;;;;;;5057433;28;28261;-81
2022/04/20 04:43:55;;;;;;;;;;;;;;;;;;5057662;28;28423;-81
2022/04/20 04:49:04;;;;;;;;;;;;;;;;;;5057373;28;28510;-81
2022/04/20 04:51:29;;;;;;;;;;;;;;;;;;5056233;28;28307;-81
2022/04/20 04:53:54;;;;;;;;;;;;;;;;;;5057300;28;28630;-81
2022/04/20 04:56:20;;;;;;;;;;;;;;;;;;5057296;28;28305;-81
2022/04/20 04:58:45;;;;;;;;;;;;;;;;;;5057135;28;28360;-81
2022/04/20 05:01:10;;;;;;;;;;;;;;;;;;5057215;28;28321;-81
2022/04/20 05:03:35;;;;;;;;;;;;;;;;;;5056537;28;28440;-81
2022/04/20 05:06:00;;;;;;;;;;;;;;;;;;5056909;28;28491;-81
2022/04/20 05:08:25;;;;;;;;;;;;;;;;;;5057032;28;28396;-81
2022/04/20 05:10:52;;;;;;;;;;;;;;;;;;5057045;28;28258;-81
2022/04/20 05:13:17;;;;;;;;;;;;;;;;;;5056839;28;28398;-81
2022/04/20 05:15:42;;;;;;;;;;;;;;;;;;5056692;28;28476;-81
2022/04/20 05:18:07;;;;;;;;;;;;;;;;;;5056870;28;28410;-81
2022/04/20 05:20:32;;;;;;;;;;;;;;;;;;5056854;28;28339;-81
2022/04/20 05:22:57;;;;;;;;;;;;;;;;;;5056954;28;28372;-81
2022/04/20 05:25:22;;;;;;;;;;;;;;;;;;5056727;28;28372;-81
2022/04/20 05:27:47;;;;;;;;;;;;;;;;;;5055273;28;28755;-81
2022/04/20 05:30:15;;;;;;;;;;;;;;;;;;5056664;28;28443;-81
2022/04/20 05:32:41;;;;;;;;;;;;;;;;;;5055497;28;28324;-81
2022/04/20 05:35:06;;;;;;;;;;;;;;;;;;5056684;28;28988;-81
2022/04/20 05:42:59;;;;;;;;;;;;;;;;;;5056527;28;28427;-81
2022/04/20 05:45:24;;;;;;;;;;;;;;;;;;5056255;28;28521;-81
2022/04/20 05:47:49;;;;;;;;;;;;;;;;;;5056216;28;27884;-80
2022/04/20 05:50:14;;;;;;;;;;;;;;;;;;5056388;28;28407;-82
2022/04/20 05:52:40;;;;;;;;;;;;;;;;;;5056401;28;28438;-81
2022/04/20 05:55:05;;;;;;;;;;;;;;;;;;5056060;28;28435;-81
2022/04/20 05:57:30;;;;;;;;;;;;;;;;;;5056100;28;28396;-81
2022/04/20 05:59:55;;;;;;;;;;;;;;;;;;5055997;28;28440;-80
2022/04/20 06:02:20;;;;;;;;;;;;;;;;;;5056380;28;28513;-81
2022/04/20 06:04:45;;;;;;;;;;;;;;;;;;5055873;28;28367;-80
2022/04/20 06:07:11;;;;;;;;;;;;;;;;;;5056025;28;28408;-81
2022/04/20 06:09:36;;;;;;;;;;;;;;;;;;5054479;28;28473;-81
2022/04/20 06:12:01;;;;;;;;;;;;;;;;;;5055899;28;28407;-81
2022/04/20 06:14:26;;;;;;;;;;;;;;;;;;5055843;28;28264;-80
2022/04/20 06:16:51;;;;;;;;;;;;;;;;;;5051967;28;28244;-80
2022/04/20 06:19:16;;;;;;;;;;;;;;;;;;5075998;28;27721;-80
2022/04/20 06:21:42;;;;;;;;;;;;;;;;;;5075922;28;28348;-81
2022/04/20 06:24:07;;;;;;;;;;;;;;;;;;5075338;28;28523;-82
2022/04/20 06:26:32;;;;;;;;;;;;;;;;;;5075715;28;28371;-81
2022/04/20 06:28:57;;;;;;;;;;;;;;;;;;5075349;28;28398;-82
2022/04/20 06:31:22;;;;;;;;;;;;;;;;;;5076007;28;28397;-82
2022/04/20 06:33:47;;;;;;;;;;;;;;;;;;5075240;28;28441;-82
2022/04/20 06:36:12;;;;;;;;;;;;;;;;;;5075408;28;28378;-82
2022/04/20 06:38:37;;;;;;;;;;;;;;;;;;5075748;28;27735;-82
2022/04/20 06:41:02;;;;;;;;;;;;;;;;;;5074447;28;28511;-81
2022/04/20 06:43:28;;;;;;;;;;;;;;;;;;5075426;28;29183;-81
2022/04/20 06:45:54;;;;;;;;;;;;;;;;;;5074951;28;28433;-82
2022/04/20 06:48:19;;;;;;;;;;;;;;;;;;5074840;28;28505;-81
2022/04/20 06:50:44;;;;;;;;;;;;;;;;;;5055439;28;28543;-82
2022/04/20 06:58:41;;;;;;;;;;;;;;;;;;5055356;28;28510;-81
2022/04/20 07:01:07;;;;;;;;;;;;;;;;;;5055051;28;28483;-81
2022/04/20 07:03:32;;;;;;;;;;;;;;;;;;5055018;28;28696;-81
2022/04/20 07:05:58;;;;;;;;;;;;;;;;;;5055255;28;28413;-81
2022/04/20 07:08:23;;;;;;;;;;;;;;;;;;5055301;28;27803;-82
2022/04/20 07:10:48;;;;;;;;;;;;;;;;;;5055205;28;28462;-82
2022/04/20 07:13:13;;;;;;;;;;;;;;;;;;5055261;28;29225;-81
2022/04/20 07:15:38;;;;;;;;;;;;;;;;;;5054588;28;28576;-82
2022/04/20 07:18:05;;;;;;;;;;;;;;;;;;5054944;28;28345;-82
2022/04/20 07:20:30;;;;;;;;;;;;;;;;;;5055071;28;28521;-82
2022/04/20 07:22:55;;;;;;;;;;;;;;;;;;5053534;28;28745;-82
2022/04/20 07:25:20;;;;;;;;;;;;;;;;;;5054415;28;28391;-82
2022/04/20 07:27:47;;;;;;;;;;;;;;;;;;5055058;28;27760;-82
2022/04/20 07:30:12;;;;;;;;;;;;;;;;;;5055000;28;28532;-82
2022/04/20 07:32:37;;;;;;;;;;;;;;;;;;5054806;28;28501;-82
2022/04/20 07:35:02;;;;;;;;;;;;;;;;;;5054673;28;28318;-82
2022/04/20 07:37:27;;;;;;;;;;;;;;;;;;5055038;28;28390;-82
2022/04/20 07:39:52;;;;;;;;;;;;;;;;;;5054769;28;28592;-82
2022/04/20 07:42:17;;;;;;;;;;;;;;;;;;5054694;28;28158;-82
2022/04/20 07:44:43;;;;;;;;;;;;;;;;;;5053295;28;28376;-82
2022/04/20 07:47:08;;;;;;;;;;;;;;;;;;5054739;28;28604;-82
2022/04/20 07:52:18;;;;;;;;;;;;;;;;;;5054652;28;28288;-82
2022/04/20 07:54:43;;;;;;;;;;;;;;;;;;5054459;28;29029;-82
2022/04/20 07:57:11;;;;;;;;;;;;;;;;;;5074410;28;28489;-82
2022/04/20 07:59:37;;;;;;;;;;;;;;;;;;5074463;28;28448;-82
2022/04/20 08:02:02;;;;;;;;;;;;;;;;;;5074009;28;28484;-81
2022/04/20 08:04:27;;;;;;;;;;;;;;;;;;5074271;28;28414;-82
2022/04/20 08:06:53;;;;;;;;;;;;;;;;;;5074274;28;28572;-81
2022/04/20 08:09:19;;;;;;;;;;;;;;;;;;5074795;28;28368;-81
2022/04/20 08:11:44;;;;;;;;;;;;;;;;;;5074387;28;28409;-81
2022/04/20 08:14:09;;;;;;;;;;;;;;;;;;5074512;28;28435;-82
2022/04/20 08:16:34;;;;;;;;;;;;;;;;;;5073952;28;28443;-81
2022/04/20 08:18:59;;;;;;;;;;;;;;;;;;5074264;28;28370;-82
2022/04/20 08:21:24;;;;;;;;;;;;;;;;;;5067142;28;28627;-82
2022/04/20 08:23:49;;;;;;;;;;;;;;;;;;5054268;28;28406;-81
2022/04/20 08:26:14;;;;;;;;;;;;;;;;;;5054254;28;28462;-82
2022/04/20 08:28:39;;;;;;;;;;;;;;;;;;5054203;28;28380;-82
2022/04/20 08:31:04;;;;;;;;;;;;;;;;;;5053819;28;28416;-82
2022/04/20 08:33:30;;;;;;;;;;;;;;;;;;5054286;28;28355;-82
2022/04/20 08:35:55;;;;;;;;;;;;;;;;;;5054143;28;28341;-82
2022/04/20 08:38:20;;;;;;;;;;;;;;;;;;5056714;28;28352;-82
2022/04/20 08:40:45;;;;;;;;;;;;;;;;;;5057321;28;28431;-82
2022/04/20 08:43:10;;;;;;;;;;;;;;;;;;5057337;28;28471;-82
2022/04/20 08:45:37;;;;;;;;;;;;;;;;;;5057125;28;28414;-82
2022/04/20 08:48:02;;;;;;;;;;;;;;;;;;5057466;28;28383;-82
2022/04/20 08:50:27;;;;;;;;;;;;;;;;;;5057472;28;28265;-81
2022/04/20 08:52:52;;;;;;;;;;;;;;;;;;5055448;28;28363;-81
2022/04/20 08:55:17;;;;;;;;;;;;;;;;;;5057294;28;28312;-82
2022/04/20 08:57:43;;;;;;;;;;;;;;;;;;5057252;28;28541;-82
2022/04/20 09:00:09;;;;;;;;;;;;;;;;;;5059435;28;28535;-82
2022/04/20 09:02:34;;;;;;;;;;;;;;;;;;5062833;28;28245;-82
2022/04/20 09:05:00;;;;;;;;;;;;;;;;;;5060500;28;28355;-81
2022/04/20 09:07:25;;;;;;;;;;;;;;;;;;5058656;28;28379;-83
2022/04/20 09:09:50;;;;;;;;;;;;;;;;;;5058271;28;29352;-83
2022/04/20 09:12:16;;;;;;;;;;;;;;;;;;5056750;28;28484;-83
2022/04/20 09:14:43;;;;;;;;;;;;;;;;;;5057179;28;28447;-83
2022/04/20 09:17:08;;;;;;;;;;;;;;;;;;5056905;28;28568;-83
2022/04/20 09:19:33;;;;;;;;;;;;;;;;;;5056998;28;28409;-83
2022/04/20 09:21:58;;;;;;;;;;;;;;;;;;5056743;28;28522;-83
2022/04/20 09:24:23;;;;;;;;;;;;;;;;;;5057449;28;28374;-83
2022/04/20 09:26:48;;;;;;;;;;;;;;;;;;5062204;28;28380;-81
2022/04/20 09:29:14;;;;;;;;;;;;;;;;;;5055732;28;29155;-82
2022/04/20 09:31:39;;;;;;;;;;;;;;;;;;5057161;28;28325;-83
2022/04/20 09:34:04;;;;;;;;;;;;;;;;;;5076848;28;28419;-83
2022/04/20 09:36:29;;;;;;;;;;;;;;;;;;5076905;28;28461;-82
2022/04/20 09:38:54;;;;;;;;;;;;;;;;;;5076760;28;28432;-83
2022/04/20 09:41:19;;;;;;;;;;;;;;;;;;5076302;28;28319;-83
2022/04/20 09:43:45;;;;;;;;;;;;;;;;;;5076695;28;28417;-83
2022/04/20 09:48:54;;;;;;;;;;;;;;;;;;5075959;28;28485;-83
2022/04/20 09:51:22;;;;;;;;;;;;;;;;;;5076536;28;28489;-83
2022/04/20 09:53:50;;;;;;;;;;;;;;;;;;5076476;28;28278;-83
2022/04/20 09:56:16;;;;;;;;;;;;;;;;;;5076561;28;28378;-83
2022/04/20 09:58:41;;;;;;;;;;;;;;;;;;5065456;28;30234;-84
2022/04/20 10:01:06;;;;;;;;;;;;;;;;;;5055817;28;28360;-83
2022/04/20 10:03:32;;;;;;;;;;;;;;;;;;5056131;28;28356;-84
2022/04/20 10:05:57;;;;;;;;;;;;;;;;;;5056326;28;35820;-83
2022/04/20 10:08:23;;;;;;;;;;;;;;;;;;5055808;28;28633;-87
2022/04/20 10:10:48;;;;;;;;;;;;;;;;;;5055931;28;28502;-83
2022/04/20 10:13:13;;;;;;;;;;;;;;;;;;5055945;28;28340;-83
2022/04/20 10:18:22;;;;;;;;;;;;;;;;;;5055795;28;28537;-83
2022/04/20 10:20:47;;;;;;;;;;;;;;;;;;5054475;28;28395;-83
2022/04/20 10:23:12;;;;;;;;;;;;;;;;;;5055956;28;28490;-83
2022/04/20 10:25:39;;;;;;;;;;;;;;;;;;5055943;28;28323;-83
2022/04/20 10:28:04;;;;;;;;;;;;;;;;;;5054365;28;28412;-83
2022/04/20 10:30:29;;;;;;;;;;;;;;;;;;5055518;28;28393;-84
2022/04/20 10:32:55;;;;;;;;;;;;;;;;;;5055996;28;28326;-83
2022/04/20 10:35:21;;;;;;;;;;;;;;;;;;5056005;28;28456;-82
2022/04/20 10:37:47;;;;;;;;;;;;;;;;;;5055553;28;28383;-83
2022/04/20 10:40:12;;;;;;;;;;;;;;;;;;5055582;28;28241;-83
2022/04/20 10:42:38;;;;;;;;;;;;;;;;;;5055544;28;28244;-83
2022/04/20 10:45:04;;;;;;;;;;;;;;;;;;5055475;28;28228;-83
2022/04/20 10:47:29;;;;;;;;;;;;;;;;;;5055790;28;29466;-83
2022/04/20 10:49:54;;;;;;;;;;;;;;;;;;5059021;28;28400;-83
2022/04/20 10:52:19;;;;;;;;;;;;;;;;;;5057345;28;28280;-83
2022/04/20 10:54:44;;;;;;;;;;;;;;;;;;5055972;28;28399;-83
2022/04/20 10:57:09;;;;;;;;;;;;;;;;;;5055383;28;28503;-83
2022/04/20 10:59:34;;;;;;;;;;;;;;;;;;5058402;28;28325;-80
2022/04/20 11:02:02;;;;;;;;;;;;;;;;;;5058496;28;28312;-83
2022/04/20 11:04:27;;;;;;;;;;;;;;;;;;5057222;28;28558;-83
2022/04/20 11:06:52;;;;;;;;;;;;;;;;;;5056662;28;29771;-83
2022/04/20 11:09:17;;;;;;;;;;;;;;;;;;5055477;28;28447;-83
2022/04/20 11:19:55;;;;;;;;;;;;;;;;;;5073058;28;28371;-83
2022/04/20 11:22:20;;;;;;;;;;;;;;;;;;5073070;28;28619;-83
2022/04/20 11:24:47;;;;;;;;;;;;;;;;;;5075680;28;27844;-83
2022/04/20 11:27:12;;;;;;;;;;;;;;;;;;5073013;28;28560;-83
2022/04/20 11:29:37;;;;;;;;;;;;;;;;;;5072823;28;28361;-83
2022/04/20 11:32:03;;;;;;;;;;;;;;;;;;5072927;28;28415;-83
2022/04/20 11:34:28;;;;;;;;;;;;;;;;;;5073000;28;28502;-83
2022/04/20 11:36:53;;;;;;;;;;;;;;;;;;5072583;28;28536;-83
2022/04/20 11:39:19;;;;;;;;;;;;;;;;;;5073003;28;28546;-83
2022/04/20 11:41:44;;;;;;;;;;;;;;;;;;5072819;28;28403;-83
2022/04/20 11:44:09;;;;;;;;;;;;;;;;;;5072838;28;28464;-83
2022/04/20 11:46:34;;;;;;;;;;;;;;;;;;5072235;28;29630;-83
2022/04/20 11:48:59;;;;;;;;;;;;;;;;;;5072664;28;28431;-81
2022/04/20 11:51:25;;;;;;;;;;;;;;;;;;5064598;28;28527;-83
2022/04/20 11:53:50;;;;;;;;;;;;;;;;;;5054761;28;28340;-81
2022/04/20 11:56:15;;;;;;;;;;;;;;;;;;5054756;28;28532;-83
2022/04/20 11:58:40;;;;;;;;;;;;;;;;;;5054427;28;28328;-83
2022/04/20 12:01:05;;;;;;;;;;;;;;;;;;5054473;28;28342;-83
2022/04/20 12:03:31;;;;;;;;;;;;;;;;;;5054534;28;28346;-83
2022/04/20 12:05:56;;;;;;;;;;;;;;;;;;5054528;28;28388;-83
2022/04/20 12:08:21;;;;;;;;;;;;;;;;;;5054610;28;28288;-83
2022/04/20 12:10:46;;;;;;;;;;;;;;;;;;5054625;28;28238;-81
2022/04/20 12:13:12;;;;;;;;;;;;;;;;;;5058173;28;28298;-81
2022/04/20 12:15:38;;;;;;;;;;;;;;;;;;5057882;28;29614;-81
2022/04/20 12:18:03;;;;;;;;;;;;;;;;;;5056145;28;28536;-81
2022/04/20 12:20:29;;;;;;;;;;;;;;;;;;5057912;28;28350;-84
2022/04/20 12:22:54;;;;;;;;;;;;;;;;;;5057797;28;28395;-81
2022/04/20 12:25:20;;;;;;;;;;;;;;;;;;5057733;28;28569;-81
2022/04/20 12:27:45;;;;;;;;;;;;;;;;;;5057706;28;28404;-81
2022/04/20 12:30:10;;;;;;;;;;;;;;;;;;5057651;28;28273;-81
2022/04/20 12:32:36;;;;;;;;;;;;;;;;;;5057763;28;28455;-81
2022/04/20 12:35:05;;;;;;;;;;;;;;;;;;5057389;28;28348;-81
2022/04/20 12:37:30;;;;;;;;;;;;;;;;;;5057542;28;28352;-81
2022/04/20 12:39:55;;;;;;;;;;;;;;;;;;5057543;28;28471;-81
2022/04/20 12:42:20;;;;;;;;;;;;;;;;;;5057499;28;28456;-81
2022/04/20 12:44:51;;;;;;;;;;;;;;;;;;5057412;28;28468;-81
2022/04/20 12:47:17;;;;;;;;;;;;;;;;;;5057117;28;28257;-81
2022/04/20 12:49:42;;;;;;;;;;;;;;;;;;5057477;28;28400;-81
2022/04/20 12:52:08;;;;;;;;;;;;;;;;;;5057572;28;28387;-81
2022/04/20 12:54:33;;;;;;;;;;;;;;;;;;5057182;28;28600;-82
2022/04/20 13:02:26;;;;;;;;;;;;;;;;;;5057214;28;28356;-82
2022/04/20 13:04:52;;;;;;;;;;;;;;;;;;5057049;28;28621;-82
2022/04/20 13:07:17;;;;;;;;;;;;;;;;;;5057097;28;28461;-82
2022/04/20 13:09:42;;;;;;;;;;;;;;;;;;5057216;28;29054;-82
2022/04/20 13:12:07;;;;;;;;;;;;;;;;;;5057406;28;28383;-82
2022/04/20 13:14:32;;;;;;;;;;;;;;;;;;5057143;28;29823;-82
2022/04/20 13:16:57;;;;;;;;;;;;;;;;;;5055581;28;29305;-82
2022/04/20 13:19:22;;;;;;;;;;;;;;;;;;5057164;28;28338;-82
2022/04/20 13:21:47;;;;;;;;;;;;;;;;;;5056882;28;28399;-82
2022/04/20 13:24:12;;;;;;;;;;;;;;;;;;5056270;28;28348;-82
2022/04/20 13:29:22;;;;;;;;;;;;;;;;;;5056698;28;28419;-82
2022/04/20 13:31:47;;;;;;;;;;;;;;;;;;5056808;28;28478;-82
2022/04/20 13:34:12;;;;;;;;;;;;;;;;;;5056885;28;28565;-82
2022/04/20 13:36:38;;;;;;;;;;;;;;;;;;5056764;28;31499;-82
2022/04/20 13:39:03;;;;;;;;;;;;;;;;;;5056820;28;28412;-82
2022/04/20 13:41:28;;;;;;;;;;;;;;;;;;5056765;28;28450;-82
2022/04/20 13:43:53;;;;;;;;;;;;;;;;;;5056488;28;28466;-82
2022/04/20 13:46:18;;;;;;;;;;;;;;;;;;5056479;28;28568;-82
2022/04/20 13:48:43;;;;;;;;;;;;;;;;;;5056657;28;28400;-82
2022/04/20 13:51:08;;;;;;;;;;;;;;;;;;5056800;28;28498;-82
2022/04/20 13:53:33;;;;;;;;;;;;;;;;;;5056202;28;29358;-82
2022/04/20 13:55:58;;;;;;;;;;;;;;;;;;5056369;28;28333;-82
2022/04/20 13:58:23;;;;;;;;;;;;;;;;;;5056340;28;28316;-83
2022/04/20 14:00:49;;;;;;;;;;;;;;;;;;5056417;28;28411;-83
2022/04/20 14:03:14;;;;;;;;;;;;;;;;;;5056124;28;28425;-83
2022/04/20 14:05:39;;;;;;;;;;;;;;;;;;5056219;28;28519;-83
2022/04/20 14:08:04;;;;;;;;;;;;;;;;;;5056194;28;28328;-82
2022/04/20 14:10:30;;;;;;;;;;;;;;;;;;5056185;28;28430;-82
2022/04/20 14:12:55;;;;;;;;;;;;;;;;;;5056069;28;28526;-83
2022/04/20 14:15:20;;;;;;;;;;;;;;;;;;5056285;28;28413;-83
2022/04/20 14:17:46;;;;;;;;;;;;;;;;;;5056093;28;28433;-82
2022/04/20 14:20:11;;;;;;;;;;;;;;;;;;5056115;28;28416;-83
2022/04/20 14:22:36;;;;;;;;;;;;;;;;;;5055632;28;28335;-83
2022/04/20 14:33:12;;;;;;;;;;;;;;;;;;5055319;28;28355;-86
2022/04/20 14:35:37;;;;;;;;;;;;;;;;;;5055531;28;28419;-93
2022/04/20 14:38:04;;;;;;;;;;;;;;;;;;5056681;28;28373;-94
2022/04/20 14:40:29;;;;;;;;;;;;;;;;;;5057814;28;28406;-87
2022/04/20 14:42:54;;;;;;;;;;;;;;;;;;5055102;28;28652;-92
2022/04/20 14:45:23;;;;;;;;;;;;;;;;;;5055864;28;28529;-91
2022/04/20 14:47:48;;;;;;;;;;;;;;;;;;5055604;28;28283;-91
2022/04/20 14:50:13;;;;;;;;;;;;;;;;;;5055519;28;27834;-89
2022/04/20 14:52:38;;;;;;;;;;;;;;;;;;5055585;28;29343;-88
2022/04/20 14:55:04;;;;;;;;;;;;;;;;;;5053797;28;28252;-86
2022/04/20 14:57:29;;;;;;;;;;;;;;;;;;5055470;28;27768;-87
2022/04/20 14:59:54;;;;;;;;;;;;;;;;;;5055146;28;28244;-85
2022/04/20 15:02:19;;;;;;;;;;;;;;;;;;5055075;28;28653;-85
2022/04/20 15:04:44;;;;;;;;;;;;;;;;;;5055279;28;28458;-87
2022/04/20 15:07:10;;;;;;;;;;;;;;;;;;5055301;28;28229;-84
2022/04/20 15:09:35;;;;;;;;;;;;;;;;;;5055481;28;28526;-86
2022/04/20 15:12:00;;;;;;;;;;;;;;;;;;5055243;28;28678;-85
2022/04/20 15:14:25;;;;;;;;;;;;;;;;;;5055231;28;28836;-84
2022/04/20 15:16:50;;;;;;;;;;;;;;;;;;5055104;28;28292;-84
2022/04/20 15:19:17;;;;;;;;;;;;;;;;;;5054856;28;28244;-84
2022/04/20 15:21:47;;;;;;;;;;;;;;;;;;5055149;28;28606;-85
2022/04/20 15:24:12;;;;;;;;;;;;;;;;;;5055046;28;28353;-84
2022/04/20 15:26:38;;;;;;;;;;;;;;;;;;5055066;28;28283;-84
2022/04/20 15:29:03;;;;;;;;;;;;;;;;;;5055219;28;28514;-84
2022/04/20 15:31:28;;;;;;;;;;;;;;;;;;5054723;28;29447;-85
2022/04/20 15:33:54;;;;;;;;;;;;;;;;;;5054898;28;28234;-85
2022/04/20 15:36:20;;;;;;;;;;;;;;;;;;5054925;28;28406;-86
2022/04/20 15:38:45;;;;;;;;;;;;;;;;;;5054920;28;27845;-84
2022/04/20 15:41:10;;;;;;;;;;;;;;;;;;5054953;28;28416;-87
2022/04/20 15:43:35;;;;;;;;;;;;;;;;;;5054571;28;28359;-86
2022/04/20 15:46:00;;;;;;;;;;;;;;;;;;5055312;28;28366;-86
2022/04/20 15:48:25;;;;;;;;;;;;;;;;;;5057213;28;28307;-83
2022/04/20 15:50:50;;;;;;;;;;;;;;;;;;5058118;28;28402;-83
2022/04/20 15:53:15;;;;;;;;;;;;;;;;;;5057876;28;28312;-83
2022/04/20 16:01:08;;;;;;;;;;;;;;;;;;5077809;28;28715;-84
2022/04/20 16:03:33;;;;;;;;;;;;;;;;;;5077944;28;28510;-85
2022/04/20 16:05:58;;;;;;;;;;;;;;;;;;5078005;28;28244;-83
2022/04/20 16:08:24;;;;;;;;;;;;;;;;;;5078092;28;27851;-84
2022/04/20 16:10:49;;;;;;;;;;;;;;;;;;5078073;28;28365;-84
2022/04/20 16:13:16;;;;;;;;;;;;;;;;;;5078136;28;28403;-85
2022/04/20 16:15:41;;;;;;;;;;;;;;;;;;5078059;28;28490;-86
2022/04/20 16:18:06;;;;;;;;;;;;;;;;;;5077882;28;28478;-84
2022/04/20 16:20:31;;;;;;;;;;;;;;;;;;5077736;28;29392;-85
2022/04/20 16:22:57;;;;;;;;;;;;;;;;;;5077549;28;27933;-87
2022/04/20 16:25:22;;;;;;;;;;;;;;;;;;5077867;28;28423;-86
2022/04/20 16:27:47;;;;;;;;;;;;;;;;;;5077683;28;28378;-85
2022/04/20 16:30:13;;;;;;;;;;;;;;;;;;5076036;28;30110;-85
2022/04/20 16:32:38;;;;;;;;;;;;;;;;;;5077599;28;27853;-85
2022/04/20 16:35:03;;;;;;;;;;;;;;;;;;5077736;28;28480;-85
2022/04/20 16:37:28;;;;;;;;;;;;;;;;;;5067762;28;28458;-85
2022/04/20 16:39:53;;;;;;;;;;;;;;;;;;5056826;28;28422;-88
2022/04/20 16:42:19;;;;;;;;;;;;;;;;;;5057283;28;28351;-90
2022/04/20 16:44:44;;;;;;;;;;;;;;;;;;5058170;28;27827;-86
2022/04/20 16:47:09;;;;;;;;;;;;;;;;;;5057425;28;28396;-87
2022/04/20 16:49:35;;;;;;;;;;;;;;;;;;5057301;28;28555;-84
2022/04/20 16:52:00;;;;;;;;;;;;;;;;;;5057074;28;28451;-85
2022/04/20 16:54:25;;;;;;;;;;;;;;;;;;5056895;28;28468;-85
2022/04/20 16:56:50;;;;;;;;;;;;;;;;;;5057340;28;28337;-85
2022/04/20 16:59:15;;;;;;;;;;;;;;;;;;5056067;28;28432;-85
2022/04/20 17:01:42;;;;;;;;;;;;;;;;;;5057180;28;28482;-86
2022/04/20 17:04:07;;;;;;;;;;;;;;;;;;5056550;28;28277;-86
2022/04/20 17:06:32;;;;;;;;;;;;;;;;;;5057228;28;28379;-86
2022/04/20 17:08:57;;;;;;;;;;;;;;;;;;5057072;28;29513;-86
2022/04/20 17:11:22;;;;;;;;;;;;;;;;;;5056659;28;28241;-87
2022/04/20 17:13:47;;;;;;;;;;;;;;;;;;5056981;28;28317;-87
2022/04/20 17:16:13;;;;;;;;;;;;;;;;;;5056657;28;28319;-87
2022/04/20 17:18:38;;;;;;;;;;;;;;;;;;5056666;28;28355;-89
2022/04/20 17:26:33;;;;;;;;;;;;;;;;;;5056741;28;28376;-85
2022/04/20 17:28:59;;;;;;;;;;;;;;;;;;5056526;28;28311;-87
2022/04/20 17:31:25;;;;;;;;;;;;;;;;;;5056861;28;28359;-84
2022/04/20 17:33:50;;;;;;;;;;;;;;;;;;5056281;28;28324;-84